sensor_id;sensor_type;location;lat;lon;timestamp;temperature;humidity
1447;DHT22;717;51.522;7.266;2023-02-01T00:01:32;9.80;99.90
1447;DHT22;717;51.522;7.266;2023-02-01T00:04:00;9.90;99.90
1447;DHT22;717;51.522;7.266;2023-02-01T00:06:29;9.90;99.90
1447;DHT22;717;51.522;7.266;2023-02-01T00:08:57;9.90;99.90
1447;DHT22;717;51.522;7.266;2023-02-01T00:11:26;9.90;99.90
1447;DHT22;717;51.522;7.266;2023-02-01T00:13:55;9.90;99.90
1447;DHT22;717;51.522;7.266;2023-02-01T00:16:25;9.90;99.90
1447;DHT22;717;51.522;7.266;2023-02-01T00:19:00;9.90;99.90
1447;DHT22;717;51.522;7.266;2023-02-01T00:21:30;9.90;99.90
1447;DHT22;717;51.522;7.266;2023-02-01T00:23:58;9.90;99.90
1447;DHT22;717;51.522;7.266;2023-02-01T00:26:31;9.90;99.90
1447;DHT22;717;51.522;7.266;2023-02-01T00:29:00;9.90;99.90
1447;DHT22;717;51.522;7.266;2023-02-01T00:31:28;9.90;99.90
1447;DHT22;717;51.522;7.266;2023-02-01T00:34:00;9.90;99.90
1447;DHT22;717;51.522;7.266;2023-02-01T00:36:29;9.90;99.90
1447;DHT22;717;51.522;7.266;2023-02-01T00:38:57;9.80;99.90
1447;DHT22;717;51.522;7.266;2023-02-01T00:41:26;9.80;99.90
1447;DHT22;717;51.522;7.266;2023-02-01T00:43:55;9.90;99.90
1447;DHT22;717;51.522;7.266;2023-02-01T00:46:23;9.90;99.90
1447;DHT22;717;51.522;7.266;2023-02-01T00:48:52;9.90;99.90
1447;DHT22;717;51.522;7.266;2023-02-01T00:51:25;10.00;99.90
1447;DHT22;717;51.522;7.266;2023-02-01T00:53:53;10.00;99.90
1447;DHT22;717;51.522;7.266;2023-02-01T00:56:22;10.00;99.90
1447;DHT22;717;51.522;7.266;2023-02-01T00:58:53;10.00;99.90
1447;DHT22;717;51.522;7.266;2023-02-01T01:01:23;10.00;99.90
1447;DHT22;717;51.522;7.266;2023-02-01T01:03:54;10.00;99.90
1447;DHT22;717;51.522;7.266;2023-02-01T01:06:27;10.00;99.90
1447;DHT22;717;51.522;7.266;2023-02-01T01:08:57;10.00;99.90
1447;DHT22;717;51.522;7.266;2023-02-01T01:11:28;10.00;99.90
1447;DHT22;717;51.522;7.266;2023-02-01T01:13:58;10.10;99.90
1447;DHT22;717;51.522;7.266;2023-02-01T01:16:28;10.10;99.90
1447;DHT22;717;51.522;7.266;2023-02-01T01:18:58;10.10;99.90
1447;DHT22;717;51.522;7.266;2023-02-01T01:21:30;10.00;99.90
1447;DHT22;717;51.522;7.266;2023-02-01T01:23:59;10.00;99.90
1447;DHT22;717;51.522;7.266;2023-02-01T01:26:28;10.00;99.90
1447;DHT22;717;51.522;7.266;2023-02-01T01:28:58;10.00;99.90
1447;DHT22;717;51.522;7.266;2023-02-01T01:31:28;10.00;99.90
1447;DHT22;717;51.522;7.266;2023-02-01T01:33:58;10.00;99.90
1447;DHT22;717;51.522;7.266;2023-02-01T01:36:30;10.00;99.90
1447;DHT22;717;51.522;7.266;2023-02-01T01:38:59;10.00;99.90
1447;DHT22;717;51.522;7.266;2023-02-01T01:41:30;10.00;99.90
1447;DHT22;717;51.522;7.266;2023-02-01T01:44:00;9.90;99.90
1447;DHT22;717;51.522;7.266;2023-02-01T01:46:30;9.90;99.90
1447;DHT22;717;51.522;7.266;2023-02-01T01:49:03;9.90;99.90
1447;DHT22;717;51.522;7.266;2023-02-01T01:51:38;9.90;99.90
1447;DHT22;717;51.522;7.266;2023-02-01T01:54:12;9.90;99.90
1447;DHT22;717;51.522;7.266;2023-02-01T01:56:43;9.90;99.90
1447;DHT22;717;51.522;7.266;2023-02-01T01:59:15;9.90;99.90
1447;DHT22;717;51.522;7.266;2023-02-01T02:01:44;9.90;99.90
1447;DHT22;717;51.522;7.266;2023-02-01T02:04:13;9.80;99.90
1447;DHT22;717;51.522;7.266;2023-02-01T02:06:48;9.80;99.90
1447;DHT22;717;51.522;7.266;2023-02-01T02:09:18;9.90;99.90
1447;DHT22;717;51.522;7.266;2023-02-01T02:11:46;9.90;99.90
1447;DHT22;717;51.522;7.266;2023-02-01T02:14:17;9.90;99.90
1447;DHT22;717;51.522;7.266;2023-02-01T02:16:55;9.90;99.90
1447;DHT22;717;51.522;7.266;2023-02-01T02:20:03;9.80;99.90
1447;DHT22;717;51.522;7.266;2023-02-01T02:23:03;9.80;99.90
1447;DHT22;717;51.522;7.266;2023-02-01T02:29:30;9.90;99.90
1447;DHT22;717;51.522;7.266;2023-02-01T02:35:14;9.90;99.90
1447;DHT22;717;51.522;7.266;2023-02-01T02:37:49;9.90;99.90
1447;DHT22;717;51.522;7.266;2023-02-01T02:40:27;9.90;99.90
1447;DHT22;717;51.522;7.266;2023-02-01T02:43:04;9.90;99.90
1447;DHT22;717;51.522;7.266;2023-02-01T02:46:03;9.90;99.90
1447;DHT22;717;51.522;7.266;2023-02-01T02:48:49;10.00;99.90
1447;DHT22;717;51.522;7.266;2023-02-01T02:51:27;10.00;99.90
1447;DHT22;717;51.522;7.266;2023-02-01T02:54:12;10.00;99.90
1447;DHT22;717;51.522;7.266;2023-02-01T02:56:55;9.90;99.90
1447;DHT22;717;51.522;7.266;2023-02-01T02:59:38;10.00;99.90
1447;DHT22;717;51.522;7.266;2023-02-01T03:02:21;10.00;99.90
1447;DHT22;717;51.522;7.266;2023-02-01T03:05:02;9.90;99.90
1447;DHT22;717;51.522;7.266;2023-02-01T03:07:57;9.80;99.90
1447;DHT22;717;51.522;7.266;2023-02-01T03:10:35;9.80;99.90
1447;DHT22;717;51.522;7.266;2023-02-01T03:13:09;9.70;99.90
1447;DHT22;717;51.522;7.266;2023-02-01T03:15:40;9.70;99.90
1447;DHT22;717;51.522;7.266;2023-02-01T03:18:15;9.70;99.90
1447;DHT22;717;51.522;7.266;2023-02-01T03:20:47;9.70;99.90
1447;DHT22;717;51.522;7.266;2023-02-01T03:23:22;9.60;99.90
1447;DHT22;717;51.522;7.266;2023-02-01T03:25:55;9.60;99.90
1447;DHT22;717;51.522;7.266;2023-02-01T03:28:25;9.50;99.90
1447;DHT22;717;51.522;7.266;2023-02-01T03:30:56;9.50;99.90
1447;DHT22;717;51.522;7.266;2023-02-01T03:33:26;9.60;99.90
1447;DHT22;717;51.522;7.266;2023-02-01T03:36:01;9.60;99.90
1447;DHT22;717;51.522;7.266;2023-02-01T03:38:39;9.60;99.90
1447;DHT22;717;51.522;7.266;2023-02-01T03:41:13;9.70;99.90
1447;DHT22;717;51.522;7.266;2023-02-01T03:43:50;9.60;99.90
1447;DHT22;717;51.522;7.266;2023-02-01T03:46:25;9.70;99.90
1447;DHT22;717;51.522;7.266;2023-02-01T03:49:00;9.70;99.90
1447;DHT22;717;51.522;7.266;2023-02-01T03:51:30;9.70;99.90
1447;DHT22;717;51.522;7.266;2023-02-01T03:54:02;9.70;99.90
1447;DHT22;717;51.522;7.266;2023-02-01T03:56:33;9.70;99.90
1447;DHT22;717;51.522;7.266;2023-02-01T03:59:04;9.70;99.90
1447;DHT22;717;51.522;7.266;2023-02-01T04:01:33;9.60;99.90
1447;DHT22;717;51.522;7.266;2023-02-01T04:04:02;9.60;99.90
1447;DHT22;717;51.522;7.266;2023-02-01T04:06:30;9.60;99.90
1447;DHT22;717;51.522;7.266;2023-02-01T04:09:02;9.70;99.90
1447;DHT22;717;51.522;7.266;2023-02-01T04:11:31;9.60;99.90
1447;DHT22;717;51.522;7.266;2023-02-01T04:13:59;9.60;99.90
1447;DHT22;717;51.522;7.266;2023-02-01T04:16:30;9.60;99.90
1447;DHT22;717;51.522;7.266;2023-02-01T04:18:58;9.60;99.90
1447;DHT22;717;51.522;7.266;2023-02-01T04:21:27;9.60;99.90
1447;DHT22;717;51.522;7.266;2023-02-01T04:23:56;9.60;99.90
1447;DHT22;717;51.522;7.266;2023-02-01T04:26:27;9.70;99.90
1447;DHT22;717;51.522;7.266;2023-02-01T04:28:56;9.60;99.90
1447;DHT22;717;51.522;7.266;2023-02-01T04:31:25;9.60;99.90
1447;DHT22;717;51.522;7.266;2023-02-01T04:33:54;9.60;99.90
1447;DHT22;717;51.522;7.266;2023-02-01T04:36:23;9.60;99.90
1447;DHT22;717;51.522;7.266;2023-02-01T04:38:52;9.60;99.90
1447;DHT22;717;51.522;7.266;2023-02-01T04:41:21;9.60;99.90
1447;DHT22;717;51.522;7.266;2023-02-01T04:43:52;9.70;99.90
1447;DHT22;717;51.522;7.266;2023-02-01T04:46:20;9.50;99.90
1447;DHT22;717;51.522;7.266;2023-02-01T04:48:49;9.60;99.90
1447;DHT22;717;51.522;7.266;2023-02-01T04:51:17;9.60;99.90
1447;DHT22;717;51.522;7.266;2023-02-01T04:53:46;9.50;99.90
1447;DHT22;717;51.522;7.266;2023-02-01T04:56:15;9.50;99.90
1447;DHT22;717;51.522;7.266;2023-02-01T04:58:43;9.50;99.90
1447;DHT22;717;51.522;7.266;2023-02-01T05:01:15;9.40;99.90
1447;DHT22;717;51.522;7.266;2023-02-01T05:03:43;9.50;99.90
1447;DHT22;717;51.522;7.266;2023-02-01T05:06:12;9.50;99.90
1447;DHT22;717;51.522;7.266;2023-02-01T05:08:41;9.50;99.90
1447;DHT22;717;51.522;7.266;2023-02-01T05:11:09;9.50;99.90
1447;DHT22;717;51.522;7.266;2023-02-01T05:13:58;9.60;99.90
1447;DHT22;717;51.522;7.266;2023-02-01T05:16:27;9.50;99.90
1447;DHT22;717;51.522;7.266;2023-02-01T05:18:55;9.60;99.90
1447;DHT22;717;51.522;7.266;2023-02-01T05:21:25;9.60;99.90
1447;DHT22;717;51.522;7.266;2023-02-01T05:23:53;9.60;99.90
1447;DHT22;717;51.522;7.266;2023-02-01T05:26:34;9.50;99.90
1447;DHT22;717;51.522;7.266;2023-02-01T05:29:04;9.50;99.90
1447;DHT22;717;51.522;7.266;2023-02-01T05:31:36;9.60;99.90
1447;DHT22;717;51.522;7.266;2023-02-01T05:34:05;9.60;99.90
1447;DHT22;717;51.522;7.266;2023-02-01T05:36:34;9.60;99.90
1447;DHT22;717;51.522;7.266;2023-02-01T05:39:03;9.60;99.90
1447;DHT22;717;51.522;7.266;2023-02-01T05:41:32;9.70;99.90
1447;DHT22;717;51.522;7.266;2023-02-01T05:44:00;9.60;99.90
1447;DHT22;717;51.522;7.266;2023-02-01T05:46:29;9.60;99.90
1447;DHT22;717;51.522;7.266;2023-02-01T05:49:00;9.60;99.90
1447;DHT22;717;51.522;7.266;2023-02-01T05:51:29;9.60;99.90
1447;DHT22;717;51.522;7.266;2023-02-01T05:53:58;9.60;99.90
1447;DHT22;717;51.522;7.266;2023-02-01T05:56:27;9.60;99.90
1447;DHT22;717;51.522;7.266;2023-02-01T05:58:56;9.50;99.90
1447;DHT22;717;51.522;7.266;2023-02-01T06:01:24;9.30;99.90
1447;DHT22;717;51.522;7.266;2023-02-01T06:03:53;9.40;99.90
1447;DHT22;717;51.522;7.266;2023-02-01T06:06:24;9.40;99.90
1447;DHT22;717;51.522;7.266;2023-02-01T06:08:53;9.50;99.90
1447;DHT22;717;51.522;7.266;2023-02-01T06:11:21;9.50;99.90
1447;DHT22;717;51.522;7.266;2023-02-01T06:13:50;9.60;99.90
1447;DHT22;717;51.522;7.266;2023-02-01T06:16:19;9.50;99.90
1447;DHT22;717;51.522;7.266;2023-02-01T06:18:48;9.40;99.90
1447;DHT22;717;51.522;7.266;2023-02-01T06:21:16;9.40;99.90
1447;DHT22;717;51.522;7.266;2023-02-01T06:23:52;9.40;99.90
1447;DHT22;717;51.522;7.266;2023-02-01T06:26:21;9.40;99.90
1447;DHT22;717;51.522;7.266;2023-02-01T06:28:49;9.40;99.90
1447;DHT22;717;51.522;7.266;2023-02-01T06:31:18;9.40;99.90
1447;DHT22;717;51.522;7.266;2023-02-01T06:33:46;9.40;99.90
1447;DHT22;717;51.522;7.266;2023-02-01T06:36:15;9.40;99.90
1447;DHT22;717;51.522;7.266;2023-02-01T06:38:46;9.40;99.90
1447;DHT22;717;51.522;7.266;2023-02-01T06:41:17;9.40;99.90
1447;DHT22;717;51.522;7.266;2023-02-01T06:43:46;9.40;99.90
1447;DHT22;717;51.522;7.266;2023-02-01T06:46:14;9.50;99.90
1447;DHT22;717;51.522;7.266;2023-02-01T06:48:43;9.40;99.90
1447;DHT22;717;51.522;7.266;2023-02-01T06:51:22;9.50;99.90
1447;DHT22;717;51.522;7.266;2023-02-01T06:53:51;9.50;99.90
1447;DHT22;717;51.522;7.266;2023-02-01T06:56:22;9.50;99.90
1447;DHT22;717;51.522;7.266;2023-02-01T06:58:51;9.50;99.90
1447;DHT22;717;51.522;7.266;2023-02-01T07:01:19;9.60;99.90
1447;DHT22;717;51.522;7.266;2023-02-01T07:03:49;9.60;99.90
1447;DHT22;717;51.522;7.266;2023-02-01T07:06:18;9.60;99.90
1447;DHT22;717;51.522;7.266;2023-02-01T07:08:47;9.60;99.90
1447;DHT22;717;51.522;7.266;2023-02-01T07:11:17;9.60;99.90
1447;DHT22;717;51.522;7.266;2023-02-01T07:13:49;9.50;99.90
1447;DHT22;717;51.522;7.266;2023-02-01T07:16:19;9.50;99.90
1447;DHT22;717;51.522;7.266;2023-02-01T07:18:49;9.50;99.90
1447;DHT22;717;51.522;7.266;2023-02-01T07:21:18;9.50;99.90
1447;DHT22;717;51.522;7.266;2023-02-01T07:23:46;9.50;99.90
1447;DHT22;717;51.522;7.266;2023-02-01T07:26:15;9.40;99.90
1447;DHT22;717;51.522;7.266;2023-02-01T07:28:44;9.50;99.90
1447;DHT22;717;51.522;7.266;2023-02-01T07:31:17;9.50;99.90
1447;DHT22;717;51.522;7.266;2023-02-01T07:33:47;9.50;99.90
1447;DHT22;717;51.522;7.266;2023-02-01T07:36:17;9.50;99.90
1447;DHT22;717;51.522;7.266;2023-02-01T07:38:47;9.50;99.90
1447;DHT22;717;51.522;7.266;2023-02-01T07:41:17;9.60;99.90
1447;DHT22;717;51.522;7.266;2023-02-01T07:43:45;9.60;99.90
1447;DHT22;717;51.522;7.266;2023-02-01T07:46:18;9.60;99.90
1447;DHT22;717;51.522;7.266;2023-02-01T07:48:47;9.60;99.90
1447;DHT22;717;51.522;7.266;2023-02-01T07:51:16;9.60;99.90
1447;DHT22;717;51.522;7.266;2023-02-01T07:53:45;9.60;99.90
1447;DHT22;717;51.522;7.266;2023-02-01T07:56:15;9.50;99.90
1447;DHT22;717;51.522;7.266;2023-02-01T07:58:47;9.60;99.90
1447;DHT22;717;51.522;7.266;2023-02-01T08:01:20;9.60;99.90
1447;DHT22;717;51.522;7.266;2023-02-01T08:03:47;9.60;99.90
1447;DHT22;717;51.522;7.266;2023-02-01T08:06:16;9.70;99.90
1447;DHT22;717;51.522;7.266;2023-02-01T08:08:45;9.70;99.90
1447;DHT22;717;51.522;7.266;2023-02-01T08:11:14;9.70;99.90
1447;DHT22;717;51.522;7.266;2023-02-01T08:13:43;9.70;99.90
1447;DHT22;717;51.522;7.266;2023-02-01T08:16:13;9.70;99.90
1447;DHT22;717;51.522;7.266;2023-02-01T08:18:45;9.60;99.90
1447;DHT22;717;51.522;7.266;2023-02-01T08:21:16;9.70;99.90
1447;DHT22;717;51.522;7.266;2023-02-01T08:23:45;9.60;99.90
1447;DHT22;717;51.522;7.266;2023-02-01T08:26:15;9.60;99.90
1447;DHT22;717;51.522;7.266;2023-02-01T08:28:45;9.70;99.90
1447;DHT22;717;51.522;7.266;2023-02-01T08:31:16;9.70;99.90
1447;DHT22;717;51.522;7.266;2023-02-01T08:33:49;9.80;99.90
1447;DHT22;717;51.522;7.266;2023-02-01T08:36:18;9.80;99.90
1447;DHT22;717;51.522;7.266;2023-02-01T08:38:47;9.80;99.90
1447;DHT22;717;51.522;7.266;2023-02-01T08:41:17;9.80;99.90
1447;DHT22;717;51.522;7.266;2023-02-01T08:43:47;9.80;99.90
1447;DHT22;717;51.522;7.266;2023-02-01T08:46:16;9.80;99.90
1447;DHT22;717;51.522;7.266;2023-02-01T08:48:48;9.70;99.90
1447;DHT22;717;51.522;7.266;2023-02-01T08:51:18;9.70;99.90
1447;DHT22;717;51.522;7.266;2023-02-01T08:53:47;9.70;99.90
1447;DHT22;717;51.522;7.266;2023-02-01T08:56:17;9.80;99.90
1447;DHT22;717;51.522;7.266;2023-02-01T08:58:46;9.80;99.90
1447;DHT22;717;51.522;7.266;2023-02-01T09:01:16;9.80;99.90
1447;DHT22;717;51.522;7.266;2023-02-01T09:03:47;9.80;99.90
1447;DHT22;717;51.522;7.266;2023-02-01T09:06:16;9.80;99.90
1447;DHT22;717;51.522;7.266;2023-02-01T09:08:45;9.80;99.90
1447;DHT22;717;51.522;7.266;2023-02-01T09:11:16;9.70;99.90
1447;DHT22;717;51.522;7.266;2023-02-01T09:13:45;9.70;99.90
1447;DHT22;717;51.522;7.266;2023-02-01T09:16:15;9.70;99.90
1447;DHT22;717;51.522;7.266;2023-02-01T09:18:43;9.70;99.90
1447;DHT22;717;51.522;7.266;2023-02-01T09:21:14;9.60;99.90
1447;DHT22;717;51.522;7.266;2023-02-01T09:23:43;9.60;99.90
1447;DHT22;717;51.522;7.266;2023-02-01T09:26:14;9.50;99.90
1447;DHT22;717;51.522;7.266;2023-02-01T09:28:43;9.60;99.90
1447;DHT22;717;51.522;7.266;2023-02-01T09:31:11;9.50;99.90
1447;DHT22;717;51.522;7.266;2023-02-01T09:33:40;9.60;99.90
1447;DHT22;717;51.522;7.266;2023-02-01T09:36:08;9.70;99.90
1447;DHT22;717;51.522;7.266;2023-02-01T09:38:39;9.70;99.90
1447;DHT22;717;51.522;7.266;2023-02-01T09:41:21;9.80;99.90
1447;DHT22;717;51.522;7.266;2023-02-01T09:43:59;9.70;99.90
1447;DHT22;717;51.522;7.266;2023-02-01T09:46:33;9.70;99.90
1447;DHT22;717;51.522;7.266;2023-02-01T09:49:05;9.70;99.90
1447;DHT22;717;51.522;7.266;2023-02-01T09:51:36;9.70;99.90
1447;DHT22;717;51.522;7.266;2023-02-01T09:54:12;9.80;99.90
1447;DHT22;717;51.522;7.266;2023-02-01T09:56:46;9.90;99.90
1447;DHT22;717;51.522;7.266;2023-02-01T09:59:29;9.90;99.90
1447;DHT22;717;51.522;7.266;2023-02-01T10:01:59;9.90;99.90
1447;DHT22;717;51.522;7.266;2023-02-01T10:04:29;9.90;99.90
1447;DHT22;717;51.522;7.266;2023-02-01T10:07:08;9.90;99.90
1447;DHT22;717;51.522;7.266;2023-02-01T10:09:56;9.80;99.90
1447;DHT22;717;51.522;7.266;2023-02-01T10:12:37;9.80;99.90
1447;DHT22;717;51.522;7.266;2023-02-01T10:15:22;9.80;99.90
1447;DHT22;717;51.522;7.266;2023-02-01T10:18:01;9.90;99.90
1447;DHT22;717;51.522;7.266;2023-02-01T10:20:40;9.80;99.90
1447;DHT22;717;51.522;7.266;2023-02-01T10:23:31;9.90;99.90
1447;DHT22;717;51.522;7.266;2023-02-01T10:26:11;9.90;99.90
1447;DHT22;717;51.522;7.266;2023-02-01T10:28:41;9.90;99.90
1447;DHT22;717;51.522;7.266;2023-02-01T10:31:11;9.80;99.90
1447;DHT22;717;51.522;7.266;2023-02-01T10:33:42;9.90;99.90
1447;DHT22;717;51.522;7.266;2023-02-01T10:36:16;9.80;99.90
1447;DHT22;717;51.522;7.266;2023-02-01T10:38:46;9.90;99.90
1447;DHT22;717;51.522;7.266;2023-02-01T10:41:20;9.90;99.90
1447;DHT22;717;51.522;7.266;2023-02-01T10:43:53;9.90;99.90
1447;DHT22;717;51.522;7.266;2023-02-01T10:46:23;9.90;99.90
1447;DHT22;717;51.522;7.266;2023-02-01T10:48:53;10.00;99.90
1447;DHT22;717;51.522;7.266;2023-02-01T10:51:26;10.00;99.90
1447;DHT22;717;51.522;7.266;2023-02-01T10:53:58;10.10;99.90
1447;DHT22;717;51.522;7.266;2023-02-01T10:56:30;10.20;99.90
1447;DHT22;717;51.522;7.266;2023-02-01T10:59:02;10.10;99.90
1447;DHT22;717;51.522;7.266;2023-02-01T11:01:33;10.10;99.90
1447;DHT22;717;51.522;7.266;2023-02-01T11:04:04;10.00;99.90
1447;DHT22;717;51.522;7.266;2023-02-01T11:06:36;10.00;99.90
1447;DHT22;717;51.522;7.266;2023-02-01T11:09:11;10.00;99.90
1447;DHT22;717;51.522;7.266;2023-02-01T11:12:00;10.10;99.90
1447;DHT22;717;51.522;7.266;2023-02-01T11:14:35;10.10;99.90
1447;DHT22;717;51.522;7.266;2023-02-01T11:17:20;10.10;99.90
1447;DHT22;717;51.522;7.266;2023-02-01T11:19:57;10.10;99.90
1447;DHT22;717;51.522;7.266;2023-02-01T11:22:26;10.10;99.90
1447;DHT22;717;51.522;7.266;2023-02-01T11:24:56;10.20;99.90
1447;DHT22;717;51.522;7.266;2023-02-01T11:27:27;10.20;99.90
1447;DHT22;717;51.522;7.266;2023-02-01T11:29:59;10.20;99.90
1447;DHT22;717;51.522;7.266;2023-02-01T11:32:30;10.20;99.90
1447;DHT22;717;51.522;7.266;2023-02-01T11:35:01;10.10;99.90
1447;DHT22;717;51.522;7.266;2023-02-01T11:37:33;10.20;99.90
1447;DHT22;717;51.522;7.266;2023-02-01T11:40:22;10.20;99.90
1447;DHT22;717;51.522;7.266;2023-02-01T11:42:59;10.20;99.90
1447;DHT22;717;51.522;7.266;2023-02-01T11:45:29;10.20;99.90
1447;DHT22;717;51.522;7.266;2023-02-01T11:47:59;10.20;99.90
1447;DHT22;717;51.522;7.266;2023-02-01T11:50:34;10.10;99.90
1447;DHT22;717;51.522;7.266;2023-02-01T11:53:24;10.20;99.90
1447;DHT22;717;51.522;7.266;2023-02-01T11:56:00;10.30;99.90
1447;DHT22;717;51.522;7.266;2023-02-01T11:58:54;10.20;99.90
1447;DHT22;717;51.522;7.266;2023-02-01T12:01:37;10.20;99.90
1447;DHT22;717;51.522;7.266;2023-02-01T12:04:56;10.10;99.90
1447;DHT22;717;51.522;7.266;2023-02-01T12:07:36;9.90;99.90
1447;DHT22;717;51.522;7.266;2023-02-01T12:10:23;10.00;99.90
1447;DHT22;717;51.522;7.266;2023-02-01T12:13:00;9.90;99.90
1447;DHT22;717;51.522;7.266;2023-02-01T12:15:45;9.80;99.90
1447;DHT22;717;51.522;7.266;2023-02-01T12:21:38;9.80;99.90
1447;DHT22;717;51.522;7.266;2023-02-01T12:24:32;9.80;99.90
1447;DHT22;717;51.522;7.266;2023-02-01T12:27:21;9.80;99.90
1447;DHT22;717;51.522;7.266;2023-02-01T12:30:02;9.80;99.90
1447;DHT22;717;51.522;7.266;2023-02-01T12:32:49;9.90;99.90
1447;DHT22;717;51.522;7.266;2023-02-01T12:38:33;9.80;99.90
1447;DHT22;717;51.522;7.266;2023-02-01T12:41:16;9.80;99.90
1447;DHT22;717;51.522;7.266;2023-02-01T12:43:51;9.80;99.90
1447;DHT22;717;51.522;7.266;2023-02-01T12:46:25;9.80;99.90
1447;DHT22;717;51.522;7.266;2023-02-01T12:49:01;9.70;99.90
1447;DHT22;717;51.522;7.266;2023-02-01T12:51:35;9.70;99.90
1447;DHT22;717;51.522;7.266;2023-02-01T12:54:11;9.70;99.90
1447;DHT22;717;51.522;7.266;2023-02-01T12:56:43;9.60;99.90
1447;DHT22;717;51.522;7.266;2023-02-01T12:59:24;9.70;99.90
1447;DHT22;717;51.522;7.266;2023-02-01T13:01:56;9.70;99.90
1447;DHT22;717;51.522;7.266;2023-02-01T13:04:33;9.80;99.90
1447;DHT22;717;51.522;7.266;2023-02-01T13:07:07;9.80;99.90
1447;DHT22;717;51.522;7.266;2023-02-01T13:09:43;9.90;99.90
1447;DHT22;717;51.522;7.266;2023-02-01T13:12:17;9.90;99.90
1447;DHT22;717;51.522;7.266;2023-02-01T13:14:52;9.90;99.90
1447;DHT22;717;51.522;7.266;2023-02-01T13:17:23;9.90;99.90
1447;DHT22;717;51.522;7.266;2023-02-01T13:19:59;9.90;99.90
1447;DHT22;717;51.522;7.266;2023-02-01T13:22:31;9.90;99.90
1447;DHT22;717;51.522;7.266;2023-02-01T13:25:11;9.90;99.90
1447;DHT22;717;51.522;7.266;2023-02-01T13:27:41;10.00;99.90
1447;DHT22;717;51.522;7.266;2023-02-01T13:30:15;10.00;99.90
1447;DHT22;717;51.522;7.266;2023-02-01T13:33:06;10.00;99.90
1447;DHT22;717;51.522;7.266;2023-02-01T13:41:41;10.10;99.90
1447;DHT22;717;51.522;7.266;2023-02-01T13:44:25;10.10;99.90
1447;DHT22;717;51.522;7.266;2023-02-01T13:47:02;10.10;99.90
1447;DHT22;717;51.522;7.266;2023-02-01T13:49:37;10.20;99.90
1447;DHT22;717;51.522;7.266;2023-02-01T13:52:27;10.20;99.90
1447;DHT22;717;51.522;7.266;2023-02-01T13:55:28;10.20;99.90
1447;DHT22;717;51.522;7.266;2023-02-01T13:58:09;10.20;99.90
1447;DHT22;717;51.522;7.266;2023-02-01T14:00:41;10.30;99.90
1447;DHT22;717;51.522;7.266;2023-02-01T14:03:12;10.30;99.90
1447;DHT22;717;51.522;7.266;2023-02-01T14:09:13;10.30;99.90
1447;DHT22;717;51.522;7.266;2023-02-01T14:11:44;10.40;99.90
1447;DHT22;717;51.522;7.266;2023-02-01T14:14:38;10.40;99.90
1447;DHT22;717;51.522;7.266;2023-02-01T14:17:34;10.40;99.90
1447;DHT22;717;51.522;7.266;2023-02-01T14:23:20;10.40;99.90
1447;DHT22;717;51.522;7.266;2023-02-01T14:26:05;10.50;99.90
1447;DHT22;717;51.522;7.266;2023-02-01T14:28:39;10.50;99.90
1447;DHT22;717;51.522;7.266;2023-02-01T14:31:17;10.40;99.90
1447;DHT22;717;51.522;7.266;2023-02-01T14:33:47;10.40;99.90
1447;DHT22;717;51.522;7.266;2023-02-01T14:36:16;10.40;99.90
1447;DHT22;717;51.522;7.266;2023-02-01T14:38:49;10.40;99.90
1447;DHT22;717;51.522;7.266;2023-02-01T14:41:30;10.50;99.90
1447;DHT22;717;51.522;7.266;2023-02-01T14:44:30;10.50;99.90
1447;DHT22;717;51.522;7.266;2023-02-01T14:47:25;10.50;99.90
1447;DHT22;717;51.522;7.266;2023-02-01T14:49:57;10.50;99.90
1447;DHT22;717;51.522;7.266;2023-02-01T14:52:32;10.50;99.90
1447;DHT22;717;51.522;7.266;2023-02-01T14:55:06;10.60;99.90
1447;DHT22;717;51.522;7.266;2023-02-01T14:57:42;10.60;99.90
1447;DHT22;717;51.522;7.266;2023-02-01T15:00:20;10.50;99.90
1447;DHT22;717;51.522;7.266;2023-02-01T15:02:50;10.60;99.90
1447;DHT22;717;51.522;7.266;2023-02-01T15:05:30;10.60;99.90
1447;DHT22;717;51.522;7.266;2023-02-01T15:08:05;10.70;99.90
1447;DHT22;717;51.522;7.266;2023-02-01T15:10:42;10.70;99.90
1447;DHT22;717;51.522;7.266;2023-02-01T15:13:22;10.70;99.90
1447;DHT22;717;51.522;7.266;2023-02-01T15:16:01;10.70;99.90
1447;DHT22;717;51.522;7.266;2023-02-01T15:18:30;10.70;99.90
1447;DHT22;717;51.522;7.266;2023-02-01T15:21:01;10.70;99.90
1447;DHT22;717;51.522;7.266;2023-02-01T15:23:29;10.70;99.90
1447;DHT22;717;51.522;7.266;2023-02-01T15:25:58;10.70;99.90
1447;DHT22;717;51.522;7.266;2023-02-01T15:28:29;10.70;99.90
1447;DHT22;717;51.522;7.266;2023-02-01T15:31:00;10.80;99.90
1447;DHT22;717;51.522;7.266;2023-02-01T15:33:30;10.80;99.90
1447;DHT22;717;51.522;7.266;2023-02-01T15:36:08;10.80;99.90
1447;DHT22;717;51.522;7.266;2023-02-01T15:38:39;10.80;99.90
1447;DHT22;717;51.522;7.266;2023-02-01T15:41:11;10.80;99.90
1447;DHT22;717;51.522;7.266;2023-02-01T15:43:47;10.80;99.90
1447;DHT22;717;51.522;7.266;2023-02-01T15:46:24;10.90;99.90
1447;DHT22;717;51.522;7.266;2023-02-01T15:48:58;10.90;99.90
1447;DHT22;717;51.522;7.266;2023-02-01T15:51:29;10.90;99.90
1447;DHT22;717;51.522;7.266;2023-02-01T15:54:00;10.90;99.90
1447;DHT22;717;51.522;7.266;2023-02-01T15:56:34;10.90;99.90
1447;DHT22;717;51.522;7.266;2023-02-01T15:59:13;10.80;99.90
1447;DHT22;717;51.522;7.266;2023-02-01T16:01:43;10.80;99.90
1447;DHT22;717;51.522;7.266;2023-02-01T16:04:16;10.90;99.90
1447;DHT22;717;51.522;7.266;2023-02-01T16:06:48;10.90;99.90
1447;DHT22;717;51.522;7.266;2023-02-01T16:09:19;10.90;99.90
1447;DHT22;717;51.522;7.266;2023-02-01T16:11:56;10.80;99.90
1447;DHT22;717;51.522;7.266;2023-02-01T16:14:27;10.90;99.90
1447;DHT22;717;51.522;7.266;2023-02-01T16:16:58;10.80;99.90
1447;DHT22;717;51.522;7.266;2023-02-01T16:19:28;10.80;99.90
1447;DHT22;717;51.522;7.266;2023-02-01T16:21:57;10.80;99.90
1447;DHT22;717;51.522;7.266;2023-02-01T16:24:25;10.90;99.90
1447;DHT22;717;51.522;7.266;2023-02-01T16:26:54;10.90;99.90
1447;DHT22;717;51.522;7.266;2023-02-01T16:29:22;10.90;99.90
1447;DHT22;717;51.522;7.266;2023-02-01T16:31:53;10.80;99.90
1447;DHT22;717;51.522;7.266;2023-02-01T16:34:22;10.90;99.90
1447;DHT22;717;51.522;7.266;2023-02-01T16:36:51;10.90;99.90
1447;DHT22;717;51.522;7.266;2023-02-01T16:39:23;11.00;99.90
1447;DHT22;717;51.522;7.266;2023-02-01T16:41:53;11.00;99.90
1447;DHT22;717;51.522;7.266;2023-02-01T16:44:21;11.00;99.90
1447;DHT22;717;51.522;7.266;2023-02-01T16:46:53;11.00;99.90
1447;DHT22;717;51.522;7.266;2023-02-01T16:49:23;10.90;99.90
1447;DHT22;717;51.522;7.266;2023-02-01T16:51:56;10.80;99.90
1447;DHT22;717;51.522;7.266;2023-02-01T16:54:25;10.70;99.90
1447;DHT22;717;51.522;7.266;2023-02-01T16:56:54;10.60;99.90
1447;DHT22;717;51.522;7.266;2023-02-01T16:59:23;10.60;99.90
1447;DHT22;717;51.522;7.266;2023-02-01T17:01:54;10.50;99.90
1447;DHT22;717;51.522;7.266;2023-02-01T17:04:23;10.50;99.90
1447;DHT22;717;51.522;7.266;2023-02-01T17:06:51;10.40;99.90
1447;DHT22;717;51.522;7.266;2023-02-01T17:09:20;10.30;99.90
1447;DHT22;717;51.522;7.266;2023-02-01T17:11:50;10.30;99.90
1447;DHT22;717;51.522;7.266;2023-02-01T17:14:20;10.30;99.90
1447;DHT22;717;51.522;7.266;2023-02-01T17:16:50;10.30;99.90
1447;DHT22;717;51.522;7.266;2023-02-01T17:19:22;10.30;99.90
1447;DHT22;717;51.522;7.266;2023-02-01T17:21:53;10.20;99.90
1447;DHT22;717;51.522;7.266;2023-02-01T17:24:27;10.20;99.90
1447;DHT22;717;51.522;7.266;2023-02-01T17:26:56;10.20;99.90
1447;DHT22;717;51.522;7.266;2023-02-01T17:29:25;10.20;99.90
1447;DHT22;717;51.522;7.266;2023-02-01T17:31:55;10.20;99.90
1447;DHT22;717;51.522;7.266;2023-02-01T17:34:28;10.20;99.90